Dallas, Texas
Traffic Map
Current Weather Conditions
Dallas, Texas
Broken Clouds
Broken Clouds
32°
Feels Like: 34°
Wind Chill: 32° Ceiling: 28000
Heat Index: 34° Visibility: 10mi
Dew Point: 20° Wind: 5mph
Humidity: 50% Direction: 110° (ESE)
Pressure: 29.86in Gusts: 0mph
Raw Report DataKDAL 172053Z 11004KT 10SM SCT050TCU SCT190 BKN280 32/20 A2986 RMK AO2 SLP105 CB SHRA DSNT S-SW STNRY TCU NE-E T03170200 56025
Traffic Incident Summary
Active as of:
Severity:
Category:
InformationThere was an issue retrieving the traffic information for this location. Please try a different location or try again shortly.
Advertisements
Track Severe Weather on mobile